createdAt,value
2023-01-15T00:02:25.911Z,2.33
2023-01-15T00:04:54.298Z,2.30
2023-01-15T00:07:22.559Z,2.34
2023-01-15T00:09:51.124Z,2.35
2023-01-15T00:12:20.040Z,2.40
2023-01-15T00:14:48.897Z,2.40
2023-01-15T00:17:17.278Z,2.32
2023-01-15T00:19:47.187Z,2.29
2023-01-15T00:22:15.659Z,2.30
2023-01-15T00:25:02.658Z,2.19
2023-01-15T00:27:38.956Z,2.15
2023-01-15T00:30:11.257Z,2.12
2023-01-15T00:32:42.109Z,2.06
2023-01-15T00:35:21.719Z,2.03
2023-01-15T00:37:51.424Z,2.02
2023-01-15T00:40:21.535Z,2.14
2023-01-15T00:42:54.734Z,2.09
2023-01-15T00:45:23.234Z,2.12
2023-01-15T00:47:51.936Z,2.21
2023-01-15T00:50:20.978Z,2.07
2023-01-15T00:52:49.275Z,2.10
2023-01-15T00:55:17.615Z,2.20
2023-01-15T00:57:45.828Z,2.18
2023-01-15T01:00:14.665Z,2.10
2023-01-15T01:02:43.532Z,2.09
2023-01-15T01:05:11.728Z,2.07
2023-01-15T01:07:40.540Z,2.11
2023-01-15T01:10:09.877Z,2.03
2023-01-15T01:12:44.297Z,2.11
2023-01-15T01:15:12.813Z,2.16
2023-01-15T01:17:41.308Z,2.01
2023-01-15T01:20:14.801Z,2.07
2023-01-15T01:22:43.812Z,2.07
2023-01-15T01:25:11.964Z,2.03
2023-01-15T01:27:40.227Z,2.01
2023-01-15T01:30:10.792Z,1.96
2023-01-15T01:32:39.453Z,2.08
2023-01-15T01:35:07.928Z,2.00
2023-01-15T01:37:36.905Z,2.12
2023-01-15T01:40:08.098Z,1.99
2023-01-15T01:42:40.125Z,1.93
2023-01-15T01:45:32.427Z,2.09
2023-01-15T01:48:05.557Z,2.07
2023-01-15T01:50:35.580Z,2.00
2023-01-15T01:53:11.129Z,1.83
2023-01-15T01:55:39.330Z,1.98
2023-01-15T01:58:10.800Z,1.97
2023-01-15T02:00:44.831Z,2.05
2023-01-15T02:03:13.550Z,2.12
2023-01-15T02:05:47.530Z,2.08
2023-01-15T02:08:16.076Z,2.03
2023-01-15T02:10:49.425Z,1.86
2023-01-15T02:13:20.718Z,1.97
2023-01-15T02:15:57.622Z,1.97
2023-01-15T02:18:31.974Z,2.00
2023-01-15T02:21:15.826Z,1.91
2023-01-15T02:24:09.342Z,2.02
2023-01-15T02:27:08.737Z,1.94
2023-01-15T02:29:44.801Z,1.92
2023-01-15T02:32:20.389Z,2.07
2023-01-15T02:34:55.248Z,1.92
2023-01-15T02:37:28.288Z,1.83
2023-01-15T02:39:59.365Z,1.73
2023-01-15T02:42:30.533Z,1.69
2023-01-15T02:45:02.626Z,1.72
2023-01-15T02:47:36.953Z,1.84
2023-01-15T02:50:12.868Z,2.01
2023-01-15T02:52:46.719Z,1.81
2023-01-15T02:55:27.412Z,1.73
2023-01-15T02:58:01.720Z,1.63
2023-01-15T03:00:38.371Z,1.69
2023-01-15T03:03:40.454Z,1.68
2023-01-15T03:06:15.391Z,1.76
2023-01-15T03:08:44.671Z,1.63
2023-01-15T03:11:16.832Z,1.69
2023-01-15T03:13:53.186Z,1.82
2023-01-15T03:16:46.163Z,1.78
2023-01-15T03:19:23.624Z,1.68
2023-01-15T03:22:28.765Z,1.75
2023-01-15T03:25:09.252Z,1.80
2023-01-15T03:27:38.374Z,1.79
2023-01-15T03:30:15.963Z,1.85
2023-01-15T03:32:48.575Z,1.82
2023-01-15T03:35:53.115Z,1.80
2023-01-15T03:38:35.435Z,1.68
2023-01-15T03:41:18.645Z,1.59
2023-01-15T03:44:33.129Z,1.59
2023-01-15T03:47:11.231Z,1.54
2023-01-15T03:49:45.372Z,1.70
2023-01-15T03:52:27.240Z,1.71
2023-01-15T03:55:18.731Z,1.80
2023-01-15T03:58:00.273Z,1.73
2023-01-15T04:00:44.857Z,1.66
2023-01-15T04:03:16.078Z,1.61
2023-01-15T04:05:44.866Z,1.77
2023-01-15T04:08:17.798Z,1.42
2023-01-15T04:11:01.640Z,1.43
2023-01-15T04:13:31.488Z,1.51
2023-01-15T04:16:00.502Z,1.33
2023-01-15T04:18:28.905Z,1.41
2023-01-15T04:20:59.562Z,1.40
2023-01-15T04:23:28.685Z,1.53
2023-01-15T04:25:57.345Z,1.56
2023-01-15T04:28:26.007Z,1.42
2023-01-15T04:30:58.142Z,1.42
2023-01-15T04:33:26.852Z,1.34
2023-01-15T04:35:55.033Z,1.46
2023-01-15T04:38:23.466Z,1.42
2023-01-15T04:41:10.503Z,1.40
2023-01-15T04:43:58.012Z,1.22
2023-01-15T04:46:26.585Z,1.31
2023-01-15T04:48:54.772Z,1.45
2023-01-15T04:51:23.317Z,1.45
2023-01-15T04:53:53.983Z,1.48
2023-01-15T04:56:24.803Z,1.41
2023-01-15T04:58:53.285Z,1.49
2023-01-15T05:01:21.465Z,1.38
2023-01-15T05:03:49.536Z,1.32
2023-01-15T05:06:18.872Z,1.31
2023-01-15T05:08:47.158Z,1.35
2023-01-15T05:11:15.689Z,1.45
2023-01-15T05:13:44.160Z,1.56
2023-01-15T05:16:18.017Z,1.63
2023-01-15T05:18:47.900Z,1.67
2023-01-15T05:21:19.124Z,1.70
2023-01-15T05:23:49.230Z,1.69
2023-01-15T05:26:18.792Z,1.68
2023-01-15T05:28:49.783Z,1.67
2023-01-15T05:31:19.256Z,1.67
2023-01-15T05:33:49.771Z,1.47
2023-01-15T05:36:22.186Z,1.56
2023-01-15T05:38:50.511Z,1.43
2023-01-15T05:41:39.583Z,1.32
2023-01-15T05:44:11.130Z,1.50
2023-01-15T05:46:41.640Z,1.61
2023-01-15T05:49:15.966Z,1.61
2023-01-15T05:51:49.127Z,1.63
2023-01-15T05:54:19.801Z,1.61
2023-01-15T05:56:49.190Z,1.46
2023-01-15T05:59:19.621Z,1.35
2023-01-15T06:01:51.191Z,1.51
2023-01-15T06:04:21.543Z,1.45
2023-01-15T06:06:51.395Z,1.52
2023-01-15T06:09:20.595Z,1.62
2023-01-15T06:11:49.004Z,1.59
2023-01-15T06:14:17.423Z,1.64
2023-01-15T06:16:46.413Z,1.66
2023-01-15T06:19:14.897Z,1.60
2023-01-15T06:21:43.719Z,1.56
2023-01-15T06:24:12.412Z,1.56
2023-01-15T06:26:40.549Z,1.68
2023-01-15T06:29:09.061Z,1.71
2023-01-15T06:31:37.703Z,1.66
2023-01-15T06:34:05.834Z,1.73
2023-01-15T06:36:33.920Z,1.73
2023-01-15T06:39:05.082Z,1.84
2023-01-15T06:41:52.195Z,1.84
2023-01-15T06:44:39.280Z,1.84
2023-01-15T06:47:24.146Z,1.83
2023-01-15T06:49:58.009Z,1.82
2023-01-15T06:52:27.783Z,1.86
2023-01-15T06:54:56.303Z,1.96
2023-01-15T06:57:24.485Z,1.92
2023-01-15T06:59:53.791Z,1.91
2023-01-15T07:02:22.237Z,1.95
2023-01-15T07:04:51.035Z,1.91
2023-01-15T07:07:21.246Z,2.07
2023-01-15T07:10:10.405Z,2.02
2023-01-15T07:12:39.254Z,2.00
2023-01-15T07:15:08.254Z,2.00
2023-01-15T07:17:36.572Z,2.08
2023-01-15T07:20:08.685Z,2.07
2023-01-15T07:22:37.313Z,2.16
2023-01-15T07:25:06.072Z,2.33
2023-01-15T07:27:34.122Z,2.32
2023-01-15T07:30:04.802Z,2.37
2023-01-15T07:32:33.914Z,2.32
2023-01-15T07:35:02.472Z,2.27
2023-01-15T07:37:30.706Z,2.28
2023-01-15T07:39:59.304Z,2.28
2023-01-15T07:42:47.183Z,2.11
2023-01-15T07:45:34.486Z,2.20
2023-01-15T07:48:21.489Z,2.33
2023-01-15T07:50:51.050Z,2.27
2023-01-15T07:53:19.561Z,2.40
2023-01-15T07:55:47.909Z,2.35
2023-01-15T07:58:16.128Z,2.38
2023-01-15T08:00:45.423Z,2.43
2023-01-15T08:03:13.937Z,2.45
2023-01-15T08:05:42.064Z,2.50
2023-01-15T08:08:17.498Z,2.50
2023-01-15T08:11:04.574Z,2.54
2023-01-15T08:13:51.453Z,2.50
2023-01-15T08:16:20.220Z,2.59
2023-01-15T08:18:48.768Z,2.71
2023-01-15T08:21:17.507Z,2.73
2023-01-15T08:23:47.777Z,2.81
2023-01-15T08:26:19.249Z,2.65
2023-01-15T08:28:48.084Z,2.80
2023-01-15T08:31:16.390Z,2.69
2023-01-15T08:33:44.599Z,2.70
2023-01-15T08:36:13.097Z,2.74
2023-01-15T08:38:41.200Z,2.77
2023-01-15T08:41:10.086Z,2.80
2023-01-15T08:43:38.599Z,2.77
2023-01-15T08:46:07.317Z,2.87
2023-01-15T08:48:35.862Z,2.90
2023-01-15T08:51:09.243Z,2.93
2023-01-15T08:53:38.062Z,2.96
2023-01-15T08:56:16.122Z,3.03
2023-01-15T08:59:05.882Z,3.21
2023-01-15T09:01:54.327Z,3.24
2023-01-15T09:04:22.743Z,3.04
2023-01-15T09:06:51.596Z,3.04
2023-01-15T09:09:19.703Z,3.06
2023-01-15T09:11:48.809Z,3.03
2023-01-15T09:14:59.636Z,3.08
2023-01-15T09:17:09.823Z,3.12
2023-01-15T09:19:38.396Z,3.16
2023-01-15T09:22:06.604Z,3.22
2023-01-15T09:24:34.724Z,3.26
2023-01-15T09:27:03.165Z,3.29
2023-01-15T09:29:31.296Z,3.34
2023-01-15T09:31:59.417Z,3.34
2023-01-15T09:34:27.838Z,3.43
2023-01-15T09:36:56.077Z,3.53
2023-01-15T09:39:24.308Z,3.64
2023-01-15T09:42:17.576Z,3.76
2023-01-15T09:45:16.983Z,3.90
2023-01-15T09:48:00.195Z,3.97
2023-01-15T09:50:42.576Z,4.01
2023-01-15T09:53:29.828Z,4.12
2023-01-15T09:56:00.287Z,4.18
2023-01-15T09:58:38.988Z,4.23
2023-01-15T10:01:15.144Z,4.38
2023-01-15T10:03:49.722Z,4.46
2023-01-15T10:06:17.911Z,4.39
2023-01-15T10:08:48.389Z,4.41
2023-01-15T10:11:16.405Z,4.61
2023-01-15T10:14:05.906Z,4.62
2023-01-15T10:16:34.615Z,4.51
2023-01-15T10:19:03.492Z,4.41
2023-01-15T10:21:34.533Z,4.55
2023-01-15T10:24:18.503Z,4.56
2023-01-15T10:26:55.638Z,4.66
2023-01-15T10:29:54.653Z,4.75
2023-01-15T10:33:02.012Z,4.85
2023-01-15T10:35:40.240Z,5.03
2023-01-15T10:38:21.969Z,4.82
2023-01-15T10:40:50.558Z,4.76
2023-01-15T10:43:29.537Z,4.83
2023-01-15T10:46:01.678Z,4.82
2023-01-15T10:48:38.900Z,4.87
2023-01-15T10:51:17.557Z,4.86
2023-01-15T10:53:55.493Z,4.94
2023-01-15T10:56:43.433Z,4.98
2023-01-15T11:00:03.114Z,5.06
2023-01-15T11:02:34.329Z,5.09
2023-01-15T11:05:03.763Z,5.33
2023-01-15T11:08:06.434Z,5.50
2023-01-15T11:10:33.610Z,5.53
2023-01-15T11:13:42.940Z,5.65
2023-01-15T11:16:35.910Z,5.51
2023-01-15T11:19:25.071Z,5.49
2023-01-15T11:21:54.275Z,5.57
2023-01-15T11:24:22.681Z,5.40
2023-01-15T11:26:53.378Z,5.44
2023-01-15T11:29:44.116Z,5.56
2023-01-15T11:32:37.746Z,5.65
2023-01-15T11:35:09.147Z,5.60
2023-01-15T11:37:37.535Z,5.70
2023-01-15T11:40:08.345Z,5.72
2023-01-15T11:43:05.334Z,5.69
2023-01-15T11:45:52.262Z,5.64
2023-01-15T11:48:41.638Z,5.60
2023-01-15T11:51:17.703Z,5.74
2023-01-15T11:53:50.323Z,5.79
2023-01-15T11:56:23.410Z,5.71
2023-01-15T11:58:55.283Z,5.64
2023-01-15T12:01:50.400Z,5.70
2023-01-15T12:04:24.957Z,5.75
2023-01-15T12:06:53.945Z,5.78
2023-01-15T12:09:25.342Z,5.92
2023-01-15T12:12:12.596Z,6.00
2023-01-15T12:14:53.901Z,6.08
2023-01-15T12:17:36.125Z,6.23
2023-01-15T12:20:29.953Z,6.28
2023-01-15T12:23:19.874Z,6.33
2023-01-15T12:26:17.804Z,6.19
2023-01-15T12:29:19.959Z,6.25
2023-01-15T12:32:02.144Z,6.10
2023-01-15T12:34:47.053Z,6.08
2023-01-15T12:37:24.869Z,5.97
2023-01-15T12:40:04.359Z,6.07
2023-01-15T12:42:54.497Z,6.12
2023-01-15T12:45:28.696Z,6.12
2023-01-15T12:48:31.423Z,6.00
2023-01-15T12:51:04.525Z,6.00
2023-01-15T12:53:48.695Z,6.09
2023-01-15T12:56:22.727Z,5.98
2023-01-15T12:58:57.192Z,5.91
2023-01-15T13:01:36.313Z,5.89
2023-01-15T13:04:28.158Z,5.85
2023-01-15T13:07:13.174Z,5.88
2023-01-15T13:09:49.860Z,5.98
2023-01-15T13:12:18.054Z,6.05
2023-01-15T13:14:46.996Z,5.96
2023-01-15T13:17:21.616Z,5.93
2023-01-15T13:20:13.250Z,5.93
2023-01-15T13:23:13.444Z,5.95
2023-01-15T13:26:19.252Z,5.92
2023-01-15T13:29:11.804Z,5.90
2023-01-15T13:31:40.579Z,5.90
2023-01-15T13:34:46.995Z,5.88
2023-01-15T13:37:21.190Z,5.92
2023-01-15T13:39:53.979Z,5.96
2023-01-15T13:42:35.309Z,5.92
2023-01-15T13:45:15.425Z,5.88
2023-01-15T13:47:53.411Z,5.90
2023-01-15T13:50:34.761Z,5.90
2023-01-15T13:53:06.181Z,5.86
2023-01-15T13:55:48.965Z,5.84
2023-01-15T13:58:40.041Z,5.82
2023-01-15T14:01:23.170Z,5.86
2023-01-15T14:04:02.648Z,5.84
2023-01-15T14:06:45.887Z,5.81
2023-01-15T14:09:17.249Z,5.80
2023-01-15T14:12:06.692Z,5.81
2023-01-15T14:14:35.022Z,5.75
2023-01-15T14:17:24.891Z,5.79
2023-01-15T14:20:30.702Z,5.78
2023-01-15T14:23:26.354Z,5.77
2023-01-15T14:26:20.785Z,5.94
2023-01-15T14:29:19.425Z,5.93
2023-01-15T14:32:17.355Z,5.97
2023-01-15T14:34:56.001Z,5.93
2023-01-15T14:37:43.864Z,5.88
2023-01-15T14:40:32.211Z,5.94
2023-01-15T14:43:07.718Z,5.96
2023-01-15T14:45:45.124Z,6.01
2023-01-15T14:48:37.702Z,5.94
2023-01-15T14:51:22.224Z,5.88
2023-01-15T14:54:03.412Z,5.91
2023-01-15T14:56:38.177Z,5.84
2023-01-15T14:59:26.400Z,5.85
2023-01-15T15:02:02.633Z,5.87
2023-01-15T15:04:44.515Z,5.91
2023-01-15T15:07:19.255Z,5.91
2023-01-15T15:09:48.621Z,5.85
2023-01-15T15:12:39.913Z,5.77
2023-01-15T15:15:17.589Z,5.76
2023-01-15T15:17:59.594Z,5.68
2023-01-15T15:20:55.042Z,5.56
2023-01-15T15:23:48.776Z,5.51
2023-01-15T15:26:22.525Z,5.54
2023-01-15T15:28:59.172Z,5.56
2023-01-15T15:31:31.331Z,5.59
2023-01-15T15:33:59.882Z,5.54
2023-01-15T15:36:36.478Z,5.53
2023-01-15T15:39:18.956Z,5.52
2023-01-15T15:42:09.783Z,5.67
2023-01-15T15:45:08.725Z,5.59
2023-01-15T15:48:01.111Z,5.59
2023-01-15T15:50:32.312Z,5.62
2023-01-15T15:53:04.720Z,5.64
2023-01-15T15:55:41.328Z,5.61
2023-01-15T15:58:19.980Z,5.58
2023-01-15T16:00:50.813Z,5.62
2023-01-15T16:03:33.087Z,5.56
2023-01-15T16:06:03.433Z,5.58
2023-01-15T16:08:34.531Z,5.60
2023-01-15T16:11:11.172Z,5.52
2023-01-15T16:13:46.171Z,5.56
2023-01-15T16:16:19.007Z,5.46
2023-01-15T16:18:51.324Z,5.42
2023-01-15T16:21:29.219Z,5.41
2023-01-15T16:24:03.553Z,5.42
2023-01-15T16:26:56.006Z,5.37
2023-01-15T16:29:30.663Z,5.31
2023-01-15T16:31:59.998Z,5.32
2023-01-15T16:34:34.083Z,5.32
2023-01-15T16:37:03.138Z,5.36
2023-01-15T16:39:45.555Z,5.38
2023-01-15T16:42:43.781Z,5.32
2023-01-15T16:45:33.305Z,5.31
2023-01-15T16:48:07.815Z,5.40
2023-01-15T16:50:39.227Z,5.30
2023-01-15T16:53:36.715Z,5.24
2023-01-15T16:56:06.473Z,5.30
2023-01-15T16:58:36.442Z,5.27
2023-01-15T17:01:42.094Z,5.23
2023-01-15T17:04:24.321Z,5.20
2023-01-15T17:07:14.608Z,5.21
2023-01-15T17:09:46.390Z,5.26
2023-01-15T17:12:29.483Z,5.23
2023-01-15T17:15:16.466Z,5.10
2023-01-15T17:17:52.792Z,5.04
2023-01-15T17:20:27.526Z,5.00
2023-01-15T17:22:56.374Z,5.01
2023-01-15T17:25:31.505Z,4.98
2023-01-15T17:28:05.762Z,4.88
2023-01-15T17:30:35.604Z,4.90
2023-01-15T17:33:08.567Z,5.07
2023-01-15T17:35:38.661Z,5.11
2023-01-15T17:38:11.860Z,5.08
2023-01-15T17:40:41.102Z,5.16
2023-01-15T17:43:13.901Z,5.16
2023-01-15T17:45:43.155Z,5.12
2023-01-15T17:48:13.453Z,5.11
2023-01-15T17:50:41.890Z,5.05
2023-01-15T17:53:10.435Z,5.08
2023-01-15T17:55:57.604Z,5.09
2023-01-15T17:58:44.581Z,5.04
2023-01-15T18:01:38.689Z,5.02
2023-01-15T18:04:46.003Z,5.05
2023-01-15T18:07:16.002Z,5.09
2023-01-15T18:09:45.055Z,5.15
2023-01-15T18:12:13.163Z,5.04
2023-01-15T18:14:42.019Z,4.97
2023-01-15T18:17:11.731Z,4.92
2023-01-15T18:19:40.224Z,4.84
2023-01-15T18:22:10.384Z,4.83
2023-01-15T18:24:39.841Z,4.80
2023-01-15T18:27:08.450Z,4.80
2023-01-15T18:29:40.138Z,4.77
2023-01-15T18:32:09.703Z,4.78
2023-01-15T18:34:37.990Z,4.73
2023-01-15T18:37:07.079Z,4.71
2023-01-15T18:39:37.251Z,4.69
2023-01-15T18:42:06.101Z,4.68
2023-01-15T18:44:53.296Z,4.72
2023-01-15T18:47:55.910Z,4.70
2023-01-15T18:50:16.457Z,4.64
2023-01-15T18:52:50.865Z,4.58
2023-01-15T18:55:22.437Z,4.55
2023-01-15T18:57:51.573Z,4.59
2023-01-15T19:00:21.091Z,4.73
2023-01-15T19:02:50.252Z,4.67
2023-01-15T19:05:19.700Z,4.74
2023-01-15T19:07:48.277Z,4.72
2023-01-15T19:10:17.793Z,4.71
2023-01-15T19:12:46.782Z,4.60
2023-01-15T19:15:37.896Z,4.55
2023-01-15T19:18:25.468Z,4.52
2023-01-15T19:20:56.649Z,4.48
2023-01-15T19:23:25.856Z,4.45
2023-01-15T19:25:54.118Z,4.45
2023-01-15T19:28:22.804Z,4.44
2023-01-15T19:31:10.183Z,4.44
2023-01-15T19:33:39.404Z,4.44
2023-01-15T19:36:08.576Z,4.45
2023-01-15T19:38:42.439Z,4.46
2023-01-15T19:41:33.152Z,4.47
2023-01-15T19:44:20.483Z,4.44
2023-01-15T19:47:07.841Z,4.42
2023-01-15T19:49:57.786Z,4.41
2023-01-15T19:52:35.699Z,4.41
2023-01-15T19:55:10.864Z,4.42
2023-01-15T19:57:40.966Z,4.44
2023-01-15T20:00:20.609Z,4.45
2023-01-15T20:02:49.542Z,4.49
2023-01-15T20:05:19.369Z,4.48
2023-01-15T20:07:48.292Z,4.43
2023-01-15T20:10:23.259Z,4.43
2023-01-15T20:13:11.203Z,4.45
2023-01-15T20:15:42.747Z,4.36
2023-01-15T20:18:12.093Z,4.32
2023-01-15T20:20:41.326Z,4.34
2023-01-15T20:23:09.652Z,4.33
2023-01-15T20:25:38.630Z,4.35
2023-01-15T20:28:07.639Z,4.35
2023-01-15T20:30:36.227Z,4.33
2023-01-15T20:33:04.590Z,4.32
2023-01-15T20:35:33.836Z,4.37
2023-01-15T20:38:02.639Z,4.46
2023-01-15T20:40:30.969Z,4.40
2023-01-15T20:43:18.298Z,4.39
2023-01-15T20:45:50.123Z,4.38
2023-01-15T20:48:40.223Z,4.38
2023-01-15T20:51:12.659Z,4.38
2023-01-15T20:53:42.436Z,4.36
2023-01-15T20:56:15.529Z,4.32
2023-01-15T20:58:44.311Z,4.33
2023-01-15T21:01:13.233Z,4.28
2023-01-15T21:03:41.677Z,4.28
2023-01-15T21:06:10.516Z,4.29
2023-01-15T21:08:40.845Z,4.27
2023-01-15T21:11:09.197Z,4.30
2023-01-15T21:13:45.465Z,4.30
2023-01-15T21:16:15.101Z,4.31
2023-01-15T21:18:45.216Z,4.28
2023-01-15T21:21:17.182Z,4.27
2023-01-15T21:23:45.855Z,4.24
2023-01-15T21:26:15.444Z,4.19
2023-01-15T21:28:47.113Z,4.17
2023-01-15T21:31:16.122Z,4.20
2023-01-15T21:33:44.597Z,4.21
2023-01-15T21:36:14.739Z,4.23
2023-01-15T21:38:43.185Z,4.24
2023-01-15T21:41:14.021Z,4.25
2023-01-15T21:44:01.867Z,4.27
2023-01-15T21:46:30.162Z,4.24
2023-01-15T21:48:59.754Z,4.26
2023-01-15T21:51:28.199Z,4.25
2023-01-15T21:54:00.143Z,4.31
2023-01-15T21:56:28.664Z,4.30
2023-01-15T21:58:57.266Z,4.27
2023-01-15T22:01:26.116Z,4.26
2023-01-15T22:03:54.720Z,4.30
2023-01-15T22:06:22.880Z,4.34
2023-01-15T22:08:54.303Z,4.34
2023-01-15T22:11:23.769Z,4.31
2023-01-15T22:13:52.862Z,4.28
2023-01-15T22:16:20.918Z,4.24
2023-01-15T22:18:50.228Z,4.21
2023-01-15T22:21:18.504Z,4.21
2023-01-15T22:23:49.093Z,4.31
2023-01-15T22:26:19.439Z,4.28
2023-01-15T22:28:48.515Z,4.30
2023-01-15T22:31:17.901Z,4.24
2023-01-15T22:33:46.487Z,4.19
2023-01-15T22:36:15.560Z,4.20
2023-01-15T22:38:44.223Z,4.17
2023-01-15T22:41:12.821Z,4.15
2023-01-15T22:43:41.066Z,4.17
2023-01-15T22:46:14.504Z,4.16
2023-01-15T22:48:42.918Z,4.16
2023-01-15T22:51:11.107Z,4.10
2023-01-15T22:53:39.232Z,4.03
2023-01-15T22:56:07.881Z,4.01
2023-01-15T22:58:39.684Z,4.07
2023-01-15T23:01:09.916Z,4.14
2023-01-15T23:03:38.409Z,4.19
2023-01-15T23:06:10.047Z,4.17
2023-01-15T23:08:38.907Z,4.17
2023-01-15T23:11:15.643Z,4.18
2023-01-15T23:13:48.191Z,4.12
2023-01-15T23:16:16.493Z,4.05
2023-01-15T23:18:45.108Z,4.06
2023-01-15T23:21:16.092Z,4.13
2023-01-15T23:23:45.185Z,4.12
2023-01-15T23:26:16.601Z,4.17
2023-01-15T23:28:45.145Z,4.17
2023-01-15T23:31:13.819Z,4.19
2023-01-15T23:33:42.138Z,4.18
2023-01-15T23:36:12.215Z,4.22
2023-01-15T23:38:41.738Z,4.21
2023-01-15T23:41:14.384Z,4.20
2023-01-15T23:44:02.311Z,4.25
2023-01-15T23:46:35.364Z,4.27
2023-01-15T23:49:10.413Z,4.23
2023-01-15T23:51:38.938Z,4.16
2023-01-15T23:54:08.904Z,4.12
2023-01-15T23:56:37.023Z,4.01
2023-01-15T23:59:05.431Z,3.93
